KMV weather

Kalay Airport
Kalemyo, Sagaing Division, Burma

Public forecast

Using degrees Celsius for public forecast. Weather courtesy of forecast.io.

Closest aviation weather report (METAR) to Kalay Airport

Closest report is Lengpui Airport, 88.0 nm (163.0 km) WNW. Retrieved 2020/02/22 02:30 UTC (17 minutes ago):

VELP 220230Z 14004KT 5000 HZ SCT100 19/12 Q1021 NOSIG

Closest aviation forecast (TAF) to Kalay Airport

Forecast is more than 12 hours old.

Closest forecast is Imphal Airport, 94.7 nm (175.4 km) N. Retrieved 2017/12/28 12:00 UTC (2 years ago):

TAF VEIM 281100Z 2812/2821 06006KT 4000 BR FEW020 BECMG 2815/2817 00000KT 2000 BR